sensor_id;sensor_type;location;lat;lon;timestamp;P1;durP1;ratioP1;P2;durP2;ratioP2
8092;SDS011;4089;52.420;13.334;2023-08-06T00:00:56;35.83;;;8.37;;
8092;SDS011;4089;52.420;13.334;2023-08-06T00:03:23;35.60;;;8.37;;
8092;SDS011;4089;52.420;13.334;2023-08-06T00:05:50;35.60;;;9.13;;
8092;SDS011;4089;52.420;13.334;2023-08-06T00:08:17;34.97;;;8.00;;
8092;SDS011;4089;52.420;13.334;2023-08-06T00:10:44;35.50;;;8.10;;
8092;SDS011;4089;52.420;13.334;2023-08-06T00:13:11;38.20;;;8.80;;
8092;SDS011;4089;52.420;13.334;2023-08-06T00:15:37;35.33;;;8.60;;
8092;SDS011;4089;52.420;13.334;2023-08-06T00:18:04;40.03;;;9.77;;
8092;SDS011;4089;52.420;13.334;2023-08-06T00:20:31;37.40;;;9.63;;
8092;SDS011;4089;52.420;13.334;2023-08-06T00:22:58;36.97;;;9.17;;
8092;SDS011;4089;52.420;13.334;2023-08-06T00:25:25;38.40;;;9.30;;
8092;SDS011;4089;52.420;13.334;2023-08-06T00:27:51;36.80;;;9.40;;
8092;SDS011;4089;52.420;13.334;2023-08-06T00:30:18;39.10;;;9.70;;
8092;SDS011;4089;52.420;13.334;2023-08-06T00:32:45;39.77;;;9.77;;
8092;SDS011;4089;52.420;13.334;2023-08-06T00:35:12;40.23;;;9.73;;
8092;SDS011;4089;52.420;13.334;2023-08-06T00:37:39;39.37;;;10.30;;
8092;SDS011;4089;52.420;13.334;2023-08-06T00:40:06;37.40;;;9.00;;
8092;SDS011;4089;52.420;13.334;2023-08-06T00:42:34;41.13;;;10.00;;
8092;SDS011;4089;52.420;13.334;2023-08-06T00:45:01;38.13;;;9.17;;
8092;SDS011;4089;52.420;13.334;2023-08-06T00:47:29;39.03;;;9.10;;
8092;SDS011;4089;52.420;13.334;2023-08-06T00:49:56;38.87;;;9.23;;
8092;SDS011;4089;52.420;13.334;2023-08-06T00:52:23;36.27;;;9.40;;
8092;SDS011;4089;52.420;13.334;2023-08-06T00:54:50;36.73;;;9.73;;
8092;SDS011;4089;52.420;13.334;2023-08-06T00:57:17;36.27;;;9.40;;
8092;SDS011;4089;52.420;13.334;2023-08-06T00:59:44;37.40;;;9.20;;
8092;SDS011;4089;52.420;13.334;2023-08-06T01:02:12;39.13;;;9.20;;
8092;SDS011;4089;52.420;13.334;2023-08-06T01:04:39;36.67;;;9.60;;
8092;SDS011;4089;52.420;13.334;2023-08-06T01:09:55;36.53;;;9.27;;
8092;SDS011;4089;52.420;13.334;2023-08-06T01:15:19;38.53;;;9.77;;
8092;SDS011;4089;52.420;13.334;2023-08-06T01:17:49;36.47;;;8.70;;
8092;SDS011;4089;52.420;13.334;2023-08-06T01:20:17;35.13;;;8.30;;
8092;SDS011;4089;52.420;13.334;2023-08-06T01:22:43;35.87;;;8.10;;
8092;SDS011;4089;52.420;13.334;2023-08-06T01:25:10;43.30;;;8.93;;
8092;SDS011;4089;52.420;13.334;2023-08-06T01:27:49;34.57;;;7.67;;
8092;SDS011;4089;52.420;13.334;2023-08-06T01:30:16;36.60;;;8.17;;
8092;SDS011;4089;52.420;13.334;2023-08-06T01:32:49;35.93;;;8.33;;
8092;SDS011;4089;52.420;13.334;2023-08-06T01:35:20;34.70;;;7.47;;
8092;SDS011;4089;52.420;13.334;2023-08-06T01:37:49;35.60;;;8.57;;
8092;SDS011;4089;52.420;13.334;2023-08-06T01:40:16;36.93;;;8.67;;
8092;SDS011;4089;52.420;13.334;2023-08-06T01:42:43;38.17;;;8.37;;
8092;SDS011;4089;52.420;13.334;2023-08-06T01:45:09;38.30;;;8.90;;
8092;SDS011;4089;52.420;13.334;2023-08-06T01:47:37;36.17;;;8.70;;
8092;SDS011;4089;52.420;13.334;2023-08-06T01:50:03;37.77;;;8.43;;
8092;SDS011;4089;52.420;13.334;2023-08-06T01:52:31;38.60;;;9.40;;
8092;SDS011;4089;52.420;13.334;2023-08-06T01:54:57;37.60;;;9.10;;
8092;SDS011;4089;52.420;13.334;2023-08-06T01:57:24;37.90;;;8.83;;
8092;SDS011;4089;52.420;13.334;2023-08-06T01:59:51;36.20;;;8.40;;
8092;SDS011;4089;52.420;13.334;2023-08-06T02:02:18;37.77;;;8.70;;
8092;SDS011;4089;52.420;13.334;2023-08-06T02:04:44;37.00;;;9.33;;
8092;SDS011;4089;52.420;13.334;2023-08-06T02:07:11;40.93;;;10.70;;
8092;SDS011;4089;52.420;13.334;2023-08-06T02:09:38;41.30;;;9.20;;
8092;SDS011;4089;52.420;13.334;2023-08-06T02:12:06;39.60;;;9.50;;
8092;SDS011;4089;52.420;13.334;2023-08-06T02:14:33;40.30;;;9.90;;
8092;SDS011;4089;52.420;13.334;2023-08-06T02:17:00;38.83;;;9.47;;
8092;SDS011;4089;52.420;13.334;2023-08-06T02:19:27;43.10;;;11.73;;
8092;SDS011;4089;52.420;13.334;2023-08-06T02:21:54;44.40;;;12.00;;
8092;SDS011;4089;52.420;13.334;2023-08-06T02:24:21;43.17;;;11.17;;
8092;SDS011;4089;52.420;13.334;2023-08-06T02:26:48;44.27;;;11.20;;
8092;SDS011;4089;52.420;13.334;2023-08-06T02:29:17;41.30;;;11.87;;
8092;SDS011;4089;52.420;13.334;2023-08-06T02:31:44;42.23;;;12.33;;
8092;SDS011;4089;52.420;13.334;2023-08-06T02:34:11;43.63;;;12.20;;
8092;SDS011;4089;52.420;13.334;2023-08-06T02:36:38;40.67;;;11.60;;
8092;SDS011;4089;52.420;13.334;2023-08-06T02:39:04;41.20;;;12.10;;
8092;SDS011;4089;52.420;13.334;2023-08-06T02:41:31;45.20;;;12.63;;
8092;SDS011;4089;52.420;13.334;2023-08-06T02:43:58;43.90;;;12.67;;
8092;SDS011;4089;52.420;13.334;2023-08-06T02:46:25;43.90;;;11.50;;
8092;SDS011;4089;52.420;13.334;2023-08-06T02:48:52;41.57;;;12.13;;
8092;SDS011;4089;52.420;13.334;2023-08-06T02:51:18;45.10;;;12.70;;
8092;SDS011;4089;52.420;13.334;2023-08-06T02:53:45;44.20;;;12.87;;
8092;SDS011;4089;52.420;13.334;2023-08-06T02:56:14;45.80;;;11.80;;
8092;SDS011;4089;52.420;13.334;2023-08-06T02:58:41;41.67;;;11.50;;
8092;SDS011;4089;52.420;13.334;2023-08-06T03:01:08;44.87;;;11.50;;
8092;SDS011;4089;52.420;13.334;2023-08-06T03:03:35;40.50;;;10.90;;
8092;SDS011;4089;52.420;13.334;2023-08-06T03:06:01;42.27;;;11.60;;
8092;SDS011;4089;52.420;13.334;2023-08-06T03:08:29;41.57;;;11.70;;
8092;SDS011;4089;52.420;13.334;2023-08-06T03:10:55;43.83;;;11.67;;
8092;SDS011;4089;52.420;13.334;2023-08-06T03:13:22;43.67;;;10.57;;
8092;SDS011;4089;52.420;13.334;2023-08-06T03:15:56;41.30;;;10.20;;
8092;SDS011;4089;52.420;13.334;2023-08-06T03:18:24;45.73;;;11.10;;
8092;SDS011;4089;52.420;13.334;2023-08-06T03:20:55;39.63;;;9.43;;
8092;SDS011;4089;52.420;13.334;2023-08-06T03:23:21;40.43;;;9.87;;
8092;SDS011;4089;52.420;13.334;2023-08-06T03:25:48;39.73;;;9.33;;
8092;SDS011;4089;52.420;13.334;2023-08-06T03:28:15;38.63;;;9.83;;
8092;SDS011;4089;52.420;13.334;2023-08-06T03:30:42;39.20;;;8.47;;
8092;SDS011;4089;52.420;13.334;2023-08-06T03:33:09;39.07;;;8.70;;
8092;SDS011;4089;52.420;13.334;2023-08-06T03:35:36;36.50;;;7.27;;
8092;SDS011;4089;52.420;13.334;2023-08-06T03:38:03;45.23;;;9.17;;
8092;SDS011;4089;52.420;13.334;2023-08-06T03:40:30;43.03;;;10.03;;
8092;SDS011;4089;52.420;13.334;2023-08-06T03:42:56;39.37;;;8.23;;
8092;SDS011;4089;52.420;13.334;2023-08-06T03:45:23;45.50;;;9.47;;
8092;SDS011;4089;52.420;13.334;2023-08-06T03:47:50;39.83;;;9.87;;
8092;SDS011;4089;52.420;13.334;2023-08-06T03:50:17;39.23;;;8.90;;
8092;SDS011;4089;52.420;13.334;2023-08-06T03:52:44;42.40;;;9.30;;
8092;SDS011;4089;52.420;13.334;2023-08-06T03:55:11;37.50;;;9.10;;
8092;SDS011;4089;52.420;13.334;2023-08-06T03:57:38;38.70;;;9.40;;
8092;SDS011;4089;52.420;13.334;2023-08-06T04:00:05;37.67;;;8.63;;
8092;SDS011;4089;52.420;13.334;2023-08-06T04:02:32;37.50;;;8.53;;
8092;SDS011;4089;52.420;13.334;2023-08-06T04:05:00;38.57;;;9.23;;
8092;SDS011;4089;52.420;13.334;2023-08-06T04:07:27;37.80;;;9.17;;
8092;SDS011;4089;52.420;13.334;2023-08-06T04:09:54;39.13;;;9.07;;
8092;SDS011;4089;52.420;13.334;2023-08-06T04:12:22;37.60;;;8.20;;
8092;SDS011;4089;52.420;13.334;2023-08-06T04:14:50;41.33;;;9.43;;
8092;SDS011;4089;52.420;13.334;2023-08-06T04:17:18;38.60;;;8.70;;
8092;SDS011;4089;52.420;13.334;2023-08-06T04:19:52;41.33;;;10.17;;
8092;SDS011;4089;52.420;13.334;2023-08-06T04:22:21;37.37;;;8.47;;
8092;SDS011;4089;52.420;13.334;2023-08-06T04:24:48;36.00;;;8.40;;
8092;SDS011;4089;52.420;13.334;2023-08-06T04:27:15;41.10;;;9.20;;
8092;SDS011;4089;52.420;13.334;2023-08-06T04:29:43;41.60;;;10.27;;
8092;SDS011;4089;52.420;13.334;2023-08-06T04:32:10;40.70;;;9.47;;
8092;SDS011;4089;52.420;13.334;2023-08-06T04:34:37;39.17;;;8.93;;
8092;SDS011;4089;52.420;13.334;2023-08-06T04:37:04;37.30;;;8.00;;
8092;SDS011;4089;52.420;13.334;2023-08-06T04:39:31;35.83;;;8.07;;
8092;SDS011;4089;52.420;13.334;2023-08-06T04:41:58;38.57;;;10.03;;
8092;SDS011;4089;52.420;13.334;2023-08-06T04:44:25;44.37;;;11.03;;
8092;SDS011;4089;52.420;13.334;2023-08-06T04:46:52;42.13;;;8.93;;
8092;SDS011;4089;52.420;13.334;2023-08-06T04:49:22;39.70;;;9.20;;
8092;SDS011;4089;52.420;13.334;2023-08-06T04:51:49;41.70;;;10.80;;
8092;SDS011;4089;52.420;13.334;2023-08-06T04:54:16;45.97;;;9.33;;
8092;SDS011;4089;52.420;13.334;2023-08-06T04:56:43;40.67;;;10.73;;
8092;SDS011;4089;52.420;13.334;2023-08-06T04:59:10;43.43;;;10.63;;
8092;SDS011;4089;52.420;13.334;2023-08-06T05:01:37;38.87;;;9.03;;
8092;SDS011;4089;52.420;13.334;2023-08-06T05:04:03;36.37;;;7.87;;
8092;SDS011;4089;52.420;13.334;2023-08-06T05:06:30;39.47;;;10.10;;
8092;SDS011;4089;52.420;13.334;2023-08-06T05:08:57;38.80;;;9.70;;
8092;SDS011;4089;52.420;13.334;2023-08-06T05:11:24;37.83;;;8.73;;
8092;SDS011;4089;52.420;13.334;2023-08-06T05:13:51;38.70;;;9.17;;
8092;SDS011;4089;52.420;13.334;2023-08-06T05:16:18;36.33;;;8.90;;
8092;SDS011;4089;52.420;13.334;2023-08-06T05:18:45;40.90;;;10.40;;
8092;SDS011;4089;52.420;13.334;2023-08-06T05:21:12;43.20;;;12.30;;
8092;SDS011;4089;52.420;13.334;2023-08-06T05:23:38;38.03;;;8.17;;
8092;SDS011;4089;52.420;13.334;2023-08-06T05:26:05;38.27;;;9.10;;
8092;SDS011;4089;52.420;13.334;2023-08-06T05:28:32;39.53;;;9.33;;
8092;SDS011;4089;52.420;13.334;2023-08-06T05:31:02;39.27;;;9.70;;
8092;SDS011;4089;52.420;13.334;2023-08-06T05:33:29;42.93;;;9.80;;
8092;SDS011;4089;52.420;13.334;2023-08-06T05:35:56;42.27;;;9.70;;
8092;SDS011;4089;52.420;13.334;2023-08-06T05:38:23;40.10;;;9.20;;
8092;SDS011;4089;52.420;13.334;2023-08-06T05:40:50;40.80;;;10.33;;
8092;SDS011;4089;52.420;13.334;2023-08-06T05:43:16;39.50;;;10.27;;
8092;SDS011;4089;52.420;13.334;2023-08-06T05:45:44;37.27;;;8.50;;
8092;SDS011;4089;52.420;13.334;2023-08-06T05:48:12;38.80;;;8.70;;
8092;SDS011;4089;52.420;13.334;2023-08-06T05:50:39;37.60;;;8.57;;
8092;SDS011;4089;52.420;13.334;2023-08-06T05:53:06;37.27;;;9.17;;
8092;SDS011;4089;52.420;13.334;2023-08-06T05:55:33;37.20;;;9.30;;
8092;SDS011;4089;52.420;13.334;2023-08-06T05:58:00;38.80;;;9.93;;
8092;SDS011;4089;52.420;13.334;2023-08-06T06:00:27;43.10;;;10.77;;
8092;SDS011;4089;52.420;13.334;2023-08-06T06:02:54;42.70;;;11.63;;
8092;SDS011;4089;52.420;13.334;2023-08-06T06:05:21;40.00;;;10.47;;
8092;SDS011;4089;52.420;13.334;2023-08-06T06:07:47;41.20;;;10.17;;
8092;SDS011;4089;52.420;13.334;2023-08-06T06:10:14;42.67;;;10.70;;
8092;SDS011;4089;52.420;13.334;2023-08-06T06:12:41;43.37;;;11.00;;
8092;SDS011;4089;52.420;13.334;2023-08-06T06:15:08;41.50;;;10.30;;
8092;SDS011;4089;52.420;13.334;2023-08-06T06:17:35;43.30;;;10.93;;
8092;SDS011;4089;52.420;13.334;2023-08-06T06:20:02;38.77;;;10.23;;
8092;SDS011;4089;52.420;13.334;2023-08-06T06:22:30;41.00;;;10.50;;
8092;SDS011;4089;52.420;13.334;2023-08-06T06:24:57;38.70;;;9.40;;
8092;SDS011;4089;52.420;13.334;2023-08-06T06:27:24;39.57;;;10.20;;
8092;SDS011;4089;52.420;13.334;2023-08-06T06:29:50;41.27;;;10.63;;
8092;SDS011;4089;52.420;13.334;2023-08-06T06:32:18;36.07;;;8.90;;
8092;SDS011;4089;52.420;13.334;2023-08-06T06:34:45;38.27;;;10.57;;
8092;SDS011;4089;52.420;13.334;2023-08-06T06:37:12;36.80;;;9.07;;
8092;SDS011;4089;52.420;13.334;2023-08-06T06:39:39;34.77;;;8.30;;
8092;SDS011;4089;52.420;13.334;2023-08-06T06:42:07;36.40;;;9.10;;
8092;SDS011;4089;52.420;13.334;2023-08-06T06:44:34;37.30;;;8.77;;
8092;SDS011;4089;52.420;13.334;2023-08-06T06:47:01;34.50;;;8.50;;
8092;SDS011;4089;52.420;13.334;2023-08-06T06:49:27;33.87;;;7.70;;
8092;SDS011;4089;52.420;13.334;2023-08-06T06:51:54;34.50;;;8.27;;
8092;SDS011;4089;52.420;13.334;2023-08-06T06:54:21;35.60;;;8.10;;
8092;SDS011;4089;52.420;13.334;2023-08-06T06:56:48;33.17;;;7.57;;
8092;SDS011;4089;52.420;13.334;2023-08-06T06:59:15;34.93;;;8.70;;
8092;SDS011;4089;52.420;13.334;2023-08-06T07:01:42;33.10;;;6.73;;
8092;SDS011;4089;52.420;13.334;2023-08-06T07:04:08;33.90;;;8.17;;
8092;SDS011;4089;52.420;13.334;2023-08-06T07:06:35;35.70;;;8.37;;
8092;SDS011;4089;52.420;13.334;2023-08-06T07:09:02;38.67;;;9.37;;
8092;SDS011;4089;52.420;13.334;2023-08-06T07:11:29;37.57;;;8.70;;
8092;SDS011;4089;52.420;13.334;2023-08-06T07:13:56;36.60;;;8.10;;
8092;SDS011;4089;52.420;13.334;2023-08-06T07:16:27;38.43;;;9.47;;
8092;SDS011;4089;52.420;13.334;2023-08-06T07:18:55;35.60;;;8.70;;
8092;SDS011;4089;52.420;13.334;2023-08-06T07:21:22;36.67;;;9.60;;
8092;SDS011;4089;52.420;13.334;2023-08-06T07:23:49;35.60;;;8.17;;
8092;SDS011;4089;52.420;13.334;2023-08-06T07:26:16;36.27;;;9.73;;
8092;SDS011;4089;52.420;13.334;2023-08-06T07:28:43;34.57;;;8.30;;
8092;SDS011;4089;52.420;13.334;2023-08-06T07:31:11;36.27;;;9.33;;
8092;SDS011;4089;52.420;13.334;2023-08-06T07:33:38;35.30;;;8.80;;
8092;SDS011;4089;52.420;13.334;2023-08-06T07:36:12;34.97;;;8.70;;
8092;SDS011;4089;52.420;13.334;2023-08-06T07:38:39;35.13;;;8.20;;
8092;SDS011;4089;52.420;13.334;2023-08-06T07:41:07;37.00;;;9.27;;
8092;SDS011;4089;52.420;13.334;2023-08-06T07:43:35;36.23;;;9.37;;
8092;SDS011;4089;52.420;13.334;2023-08-06T07:46:02;32.90;;;7.70;;
8092;SDS011;4089;52.420;13.334;2023-08-06T07:48:29;37.50;;;10.27;;
8092;SDS011;4089;52.420;13.334;2023-08-06T07:50:56;34.37;;;8.27;;
8092;SDS011;4089;52.420;13.334;2023-08-06T07:53:23;36.60;;;9.33;;
8092;SDS011;4089;52.420;13.334;2023-08-06T07:55:53;36.73;;;9.53;;
8092;SDS011;4089;52.420;13.334;2023-08-06T07:58:20;34.10;;;8.67;;
8092;SDS011;4089;52.420;13.334;2023-08-06T08:00:47;37.57;;;9.80;;
8092;SDS011;4089;52.420;13.334;2023-08-06T08:03:15;33.23;;;8.87;;
8092;SDS011;4089;52.420;13.334;2023-08-06T08:05:42;36.47;;;8.57;;
8092;SDS011;4089;52.420;13.334;2023-08-06T08:08:10;35.27;;;9.23;;
8092;SDS011;4089;52.420;13.334;2023-08-06T08:10:37;35.10;;;9.30;;
8092;SDS011;4089;52.420;13.334;2023-08-06T08:13:05;34.80;;;8.10;;
8092;SDS011;4089;52.420;13.334;2023-08-06T08:15:32;36.60;;;9.00;;
8092;SDS011;4089;52.420;13.334;2023-08-06T08:18:01;34.17;;;8.90;;
8092;SDS011;4089;52.420;13.334;2023-08-06T08:20:28;33.60;;;9.70;;
8092;SDS011;4089;52.420;13.334;2023-08-06T08:22:59;37.40;;;10.23;;
8092;SDS011;4089;52.420;13.334;2023-08-06T08:25:26;34.93;;;9.50;;
8092;SDS011;4089;52.420;13.334;2023-08-06T08:27:56;36.30;;;10.13;;
8092;SDS011;4089;52.420;13.334;2023-08-06T08:30:23;36.50;;;8.60;;
8092;SDS011;4089;52.420;13.334;2023-08-06T08:32:51;37.07;;;9.43;;
8092;SDS011;4089;52.420;13.334;2023-08-06T08:35:18;34.27;;;9.40;;
8092;SDS011;4089;52.420;13.334;2023-08-06T08:37:45;34.97;;;9.00;;
8092;SDS011;4089;52.420;13.334;2023-08-06T08:40:13;37.90;;;9.63;;
8092;SDS011;4089;52.420;13.334;2023-08-06T08:42:41;36.23;;;9.80;;
8092;SDS011;4089;52.420;13.334;2023-08-06T08:45:12;40.70;;;10.70;;
8092;SDS011;4089;52.420;13.334;2023-08-06T08:47:43;35.73;;;10.50;;
8092;SDS011;4089;52.420;13.334;2023-08-06T08:50:10;40.93;;;9.77;;
8092;SDS011;4089;52.420;13.334;2023-08-06T08:52:38;34.47;;;9.00;;
8092;SDS011;4089;52.420;13.334;2023-08-06T08:55:09;33.37;;;9.03;;
8092;SDS011;4089;52.420;13.334;2023-08-06T08:57:36;36.60;;;9.40;;
8092;SDS011;4089;52.420;13.334;2023-08-06T09:00:03;34.00;;;9.77;;
8092;SDS011;4089;52.420;13.334;2023-08-06T09:02:31;34.70;;;10.00;;
8092;SDS011;4089;52.420;13.334;2023-08-06T09:05:00;37.37;;;9.97;;
8092;SDS011;4089;52.420;13.334;2023-08-06T09:07:34;34.77;;;9.50;;
8092;SDS011;4089;52.420;13.334;2023-08-06T09:10:05;37.93;;;9.03;;
8092;SDS011;4089;52.420;13.334;2023-08-06T09:12:34;36.37;;;9.90;;
8092;SDS011;4089;52.420;13.334;2023-08-06T09:15:01;34.03;;;8.57;;
8092;SDS011;4089;52.420;13.334;2023-08-06T09:17:29;34.10;;;9.17;;
8092;SDS011;4089;52.420;13.334;2023-08-06T09:19:56;35.00;;;9.70;;
8092;SDS011;4089;52.420;13.334;2023-08-06T09:22:23;35.93;;;10.20;;
8092;SDS011;4089;52.420;13.334;2023-08-06T09:24:50;37.50;;;10.20;;
8092;SDS011;4089;52.420;13.334;2023-08-06T09:27:17;34.40;;;9.77;;
8092;SDS011;4089;52.420;13.334;2023-08-06T09:29:44;32.67;;;8.80;;
8092;SDS011;4089;52.420;13.334;2023-08-06T09:32:12;36.93;;;8.73;;
8092;SDS011;4089;52.420;13.334;2023-08-06T09:34:41;34.67;;;9.90;;
8092;SDS011;4089;52.420;13.334;2023-08-06T09:37:09;33.40;;;9.17;;
8092;SDS011;4089;52.420;13.334;2023-08-06T09:39:38;36.40;;;9.80;;
8092;SDS011;4089;52.420;13.334;2023-08-06T09:42:06;32.80;;;8.97;;
8092;SDS011;4089;52.420;13.334;2023-08-06T09:44:33;33.13;;;8.47;;
8092;SDS011;4089;52.420;13.334;2023-08-06T09:47:02;33.60;;;8.77;;
8092;SDS011;4089;52.420;13.334;2023-08-06T09:51:59;34.17;;;9.30;;
8092;SDS011;4089;52.420;13.334;2023-08-06T09:54:27;33.83;;;9.20;;
8092;SDS011;4089;52.420;13.334;2023-08-06T09:56:55;32.60;;;8.60;;
8092;SDS011;4089;52.420;13.334;2023-08-06T09:59:23;34.43;;;9.40;;
8092;SDS011;4089;52.420;13.334;2023-08-06T10:01:50;34.47;;;9.50;;
8092;SDS011;4089;52.420;13.334;2023-08-06T10:04:19;30.70;;;7.93;;
8092;SDS011;4089;52.420;13.334;2023-08-06T10:06:50;36.07;;;8.90;;
8092;SDS011;4089;52.420;13.334;2023-08-06T10:09:18;33.17;;;9.50;;
8092;SDS011;4089;52.420;13.334;2023-08-06T10:11:50;31.97;;;8.50;;
8092;SDS011;4089;52.420;13.334;2023-08-06T10:14:21;36.67;;;9.57;;
8092;SDS011;4089;52.420;13.334;2023-08-06T10:16:52;35.03;;;8.43;;
8092;SDS011;4089;52.420;13.334;2023-08-06T10:19:20;31.90;;;8.40;;
8092;SDS011;4089;52.420;13.334;2023-08-06T10:24:47;37.87;;;9.77;;
8092;SDS011;4089;52.420;13.334;2023-08-06T10:33:11;32.97;;;9.30;;
8092;SDS011;4089;52.420;13.334;2023-08-06T10:35:40;32.70;;;9.23;;
8092;SDS011;4089;52.420;13.334;2023-08-06T10:38:18;35.90;;;9.97;;
8092;SDS011;4089;52.420;13.334;2023-08-06T10:43:29;34.93;;;8.90;;
8092;SDS011;4089;52.420;13.334;2023-08-06T10:46:11;35.40;;;10.57;;
8092;SDS011;4089;52.420;13.334;2023-08-06T10:48:46;38.13;;;10.97;;
8092;SDS011;4089;52.420;13.334;2023-08-06T10:51:13;35.87;;;9.60;;
8092;SDS011;4089;52.420;13.334;2023-08-06T10:53:41;35.13;;;10.07;;
8092;SDS011;4089;52.420;13.334;2023-08-06T10:56:19;34.87;;;10.07;;
8092;SDS011;4089;52.420;13.334;2023-08-06T10:58:53;38.33;;;9.90;;
8092;SDS011;4089;52.420;13.334;2023-08-06T11:01:21;35.97;;;10.87;;
8092;SDS011;4089;52.420;13.334;2023-08-06T11:03:50;36.80;;;11.93;;
8092;SDS011;4089;52.420;13.334;2023-08-06T11:06:19;38.07;;;12.37;;
8092;SDS011;4089;52.420;13.334;2023-08-06T11:08:51;38.37;;;12.37;;
8092;SDS011;4089;52.420;13.334;2023-08-06T11:11:19;36.67;;;10.93;;
8092;SDS011;4089;52.420;13.334;2023-08-06T11:13:49;35.40;;;10.63;;
8092;SDS011;4089;52.420;13.334;2023-08-06T11:16:17;38.90;;;12.20;;
8092;SDS011;4089;52.420;13.334;2023-08-06T11:18:46;36.30;;;10.90;;
8092;SDS011;4089;52.420;13.334;2023-08-06T11:21:14;34.43;;;9.53;;
8092;SDS011;4089;52.420;13.334;2023-08-06T11:23:40;34.70;;;10.43;;
8092;SDS011;4089;52.420;13.334;2023-08-06T11:26:07;34.40;;;10.33;;
8092;SDS011;4089;52.420;13.334;2023-08-06T11:28:35;35.93;;;10.47;;
8092;SDS011;4089;52.420;13.334;2023-08-06T11:31:01;38.03;;;11.17;;
8092;SDS011;4089;52.420;13.334;2023-08-06T11:33:30;37.20;;;11.60;;
8092;SDS011;4089;52.420;13.334;2023-08-06T11:35:58;39.93;;;11.57;;
8092;SDS011;4089;52.420;13.334;2023-08-06T11:38:26;37.00;;;11.23;;
8092;SDS011;4089;52.420;13.334;2023-08-06T11:40:55;34.10;;;10.10;;
8092;SDS011;4089;52.420;13.334;2023-08-06T11:43:22;41.43;;;11.80;;
8092;SDS011;4089;52.420;13.334;2023-08-06T11:45:49;36.00;;;10.40;;
8092;SDS011;4089;52.420;13.334;2023-08-06T11:48:17;39.13;;;11.60;;
8092;SDS011;4089;52.420;13.334;2023-08-06T11:50:44;40.90;;;11.87;;
8092;SDS011;4089;52.420;13.334;2023-08-06T11:53:14;36.93;;;10.37;;
8092;SDS011;4089;52.420;13.334;2023-08-06T11:55:41;36.50;;;10.93;;
8092;SDS011;4089;52.420;13.334;2023-08-06T11:58:09;36.67;;;11.67;;
8092;SDS011;4089;52.420;13.334;2023-08-06T12:00:38;34.40;;;9.73;;
8092;SDS011;4089;52.420;13.334;2023-08-06T12:03:05;34.57;;;9.00;;
8092;SDS011;4089;52.420;13.334;2023-08-06T12:05:32;35.50;;;10.10;;
8092;SDS011;4089;52.420;13.334;2023-08-06T12:08:00;36.30;;;10.23;;
8092;SDS011;4089;52.420;13.334;2023-08-06T12:10:29;35.90;;;11.13;;
8092;SDS011;4089;52.420;13.334;2023-08-06T12:12:57;38.10;;;10.90;;
8092;SDS011;4089;52.420;13.334;2023-08-06T12:15:24;39.10;;;11.40;;
8092;SDS011;4089;52.420;13.334;2023-08-06T12:17:51;39.37;;;11.50;;
8092;SDS011;4089;52.420;13.334;2023-08-06T12:20:18;39.17;;;11.67;;
8092;SDS011;4089;52.420;13.334;2023-08-06T12:22:45;38.40;;;11.80;;
8092;SDS011;4089;52.420;13.334;2023-08-06T12:25:12;40.80;;;13.20;;
8092;SDS011;4089;52.420;13.334;2023-08-06T12:27:40;44.20;;;14.10;;
8092;SDS011;4089;52.420;13.334;2023-08-06T12:30:08;43.87;;;14.00;;
8092;SDS011;4089;52.420;13.334;2023-08-06T12:32:36;45.80;;;14.93;;
8092;SDS011;4089;52.420;13.334;2023-08-06T12:35:04;42.40;;;12.10;;
8092;SDS011;4089;52.420;13.334;2023-08-06T12:37:33;33.07;;;6.60;;
8092;SDS011;4089;52.420;13.334;2023-08-06T12:40:00;40.60;;;9.53;;
8092;SDS011;4089;52.420;13.334;2023-08-06T12:42:47;38.50;;;8.73;;
8092;SDS011;4089;52.420;13.334;2023-08-06T12:45:16;37.37;;;9.13;;
8092;SDS011;4089;52.420;13.334;2023-08-06T12:47:43;41.40;;;10.30;;
8092;SDS011;4089;52.420;13.334;2023-08-06T12:50:10;41.63;;;9.77;;
8092;SDS011;4089;52.420;13.334;2023-08-06T12:52:37;41.37;;;9.07;;
8092;SDS011;4089;52.420;13.334;2023-08-06T12:55:04;36.13;;;7.87;;
8092;SDS011;4089;52.420;13.334;2023-08-06T12:57:30;40.53;;;9.17;;
8092;SDS011;4089;52.420;13.334;2023-08-06T13:00:16;37.27;;;8.30;;
8092;SDS011;4089;52.420;13.334;2023-08-06T13:02:43;37.80;;;8.17;;
8092;SDS011;4089;52.420;13.334;2023-08-06T13:05:11;38.30;;;8.60;;
8092;SDS011;4089;52.420;13.334;2023-08-06T13:07:38;39.50;;;8.67;;
8092;SDS011;4089;52.420;13.334;2023-08-06T13:10:05;40.23;;;8.43;;
8092;SDS011;4089;52.420;13.334;2023-08-06T13:12:32;36.00;;;8.40;;
8092;SDS011;4089;52.420;13.334;2023-08-06T13:14:59;37.30;;;7.50;;
8092;SDS011;4089;52.420;13.334;2023-08-06T13:17:26;34.57;;;6.40;;
8092;SDS011;4089;52.420;13.334;2023-08-06T13:19:53;37.10;;;7.20;;
8092;SDS011;4089;52.420;13.334;2023-08-06T13:22:20;34.37;;;6.13;;
8092;SDS011;4089;52.420;13.334;2023-08-06T13:24:47;33.80;;;5.70;;
8092;SDS011;4089;52.420;13.334;2023-08-06T13:27:14;34.40;;;6.87;;
8092;SDS011;4089;52.420;13.334;2023-08-06T13:29:40;33.47;;;5.80;;
8092;SDS011;4089;52.420;13.334;2023-08-06T13:32:07;34.57;;;7.07;;
8092;SDS011;4089;52.420;13.334;2023-08-06T13:34:34;37.67;;;6.20;;
8092;SDS011;4089;52.420;13.334;2023-08-06T13:37:01;34.17;;;5.27;;
8092;SDS011;4089;52.420;13.334;2023-08-06T13:39:28;34.57;;;5.27;;
8092;SDS011;4089;52.420;13.334;2023-08-06T13:41:55;37.80;;;5.77;;
8092;SDS011;4089;52.420;13.334;2023-08-06T13:44:22;32.77;;;5.33;;
8092;SDS011;4089;52.420;13.334;2023-08-06T13:46:49;36.80;;;6.50;;
8092;SDS011;4089;52.420;13.334;2023-08-06T13:49:15;32.63;;;5.40;;
8092;SDS011;4089;52.420;13.334;2023-08-06T13:51:42;34.50;;;6.60;;
8092;SDS011;4089;52.420;13.334;2023-08-06T13:54:09;33.27;;;5.90;;
8092;SDS011;4089;52.420;13.334;2023-08-06T13:56:36;32.37;;;5.13;;
8092;SDS011;4089;52.420;13.334;2023-08-06T13:59:04;33.67;;;5.90;;
8092;SDS011;4089;52.420;13.334;2023-08-06T14:01:31;32.50;;;6.40;;
8092;SDS011;4089;52.420;13.334;2023-08-06T14:04:16;34.37;;;7.27;;
8092;SDS011;4089;52.420;13.334;2023-08-06T14:06:42;35.07;;;6.70;;
8092;SDS011;4089;52.420;13.334;2023-08-06T14:09:09;38.53;;;6.20;;
8092;SDS011;4089;52.420;13.334;2023-08-06T14:11:38;34.67;;;6.60;;
8092;SDS011;4089;52.420;13.334;2023-08-06T14:14:05;37.60;;;6.90;;
8092;SDS011;4089;52.420;13.334;2023-08-06T14:16:33;37.17;;;6.60;;
8092;SDS011;4089;52.420;13.334;2023-08-06T14:19:00;37.60;;;7.70;;
8092;SDS011;4089;52.420;13.334;2023-08-06T14:21:27;44.80;;;7.90;;
8092;SDS011;4089;52.420;13.334;2023-08-06T14:23:54;37.80;;;7.13;;
8092;SDS011;4089;52.420;13.334;2023-08-06T14:26:21;37.30;;;8.63;;
8092;SDS011;4089;52.420;13.334;2023-08-06T14:28:47;41.00;;;8.80;;
8092;SDS011;4089;52.420;13.334;2023-08-06T14:31:14;37.57;;;8.47;;
8092;SDS011;4089;52.420;13.334;2023-08-06T14:33:41;39.17;;;9.70;;
8092;SDS011;4089;52.420;13.334;2023-08-06T14:36:08;41.57;;;8.70;;
8092;SDS011;4089;52.420;13.334;2023-08-06T14:38:35;39.73;;;9.00;;
8092;SDS011;4089;52.420;13.334;2023-08-06T14:41:15;43.87;;;7.50;;
8092;SDS011;4089;52.420;13.334;2023-08-06T14:43:42;36.00;;;7.83;;
8092;SDS011;4089;52.420;13.334;2023-08-06T14:46:09;42.50;;;8.20;;
8092;SDS011;4089;52.420;13.334;2023-08-06T14:48:36;42.77;;;11.10;;
8092;SDS011;4089;52.420;13.334;2023-08-06T14:51:03;43.90;;;9.70;;
8092;SDS011;4089;52.420;13.334;2023-08-06T14:53:30;45.97;;;10.63;;
8092;SDS011;4089;52.420;13.334;2023-08-06T14:55:57;44.70;;;11.40;;
8092;SDS011;4089;52.420;13.334;2023-08-06T14:58:23;42.27;;;11.00;;
8092;SDS011;4089;52.420;13.334;2023-08-06T15:00:50;42.60;;;9.93;;
8092;SDS011;4089;52.420;13.334;2023-08-06T15:03:17;38.07;;;9.17;;
8092;SDS011;4089;52.420;13.334;2023-08-06T15:05:46;42.27;;;10.13;;